createdAt,value
2022-10-20T00:00:15.202Z,69.92
2022-10-20T00:05:20.673Z,70.17
2022-10-20T00:10:26.393Z,70.16
2022-10-20T00:15:31.918Z,70.29
2022-10-20T00:20:40.595Z,70.32
2022-10-20T00:26:01.478Z,70.19
2022-10-20T00:31:08.448Z,70.14
2022-10-20T00:36:17.281Z,70.55
2022-10-20T00:41:23.014Z,70.34
2022-10-20T00:46:42.370Z,70.31
2022-10-20T00:51:48.382Z,70.49
2022-10-20T00:56:56.563Z,70.54
2022-10-20T01:02:03.787Z,70.30
2022-10-20T01:07:09.259Z,70.20
2022-10-20T01:12:40.539Z,70.51
2022-10-20T01:18:14.572Z,70.65
2022-10-20T01:23:34.824Z,70.78
2022-10-20T01:28:57.982Z,70.52
2022-10-20T01:34:09.433Z,70.39
2022-10-20T01:39:17.936Z,70.27
2022-10-20T01:44:26.629Z,70.19
2022-10-20T01:49:32.549Z,70.00
2022-10-20T01:54:37.986Z,70.29
2022-10-20T02:00:04.533Z,70.29
2022-10-20T02:05:30.446Z,70.57
2022-10-20T02:10:38.863Z,70.55
2022-10-20T02:15:56.500Z,70.51
2022-10-20T02:21:04.860Z,70.58
2022-10-20T02:26:13.135Z,70.66
2022-10-20T02:31:20.151Z,70.66
2022-10-20T02:36:30.920Z,70.67
2022-10-20T02:41:37.143Z,70.55
2022-10-20T02:46:43.414Z,70.83
2022-10-20T02:51:49.434Z,70.93
2022-10-20T02:56:55.361Z,70.90
2022-10-20T03:02:00.903Z,70.94
2022-10-20T03:07:06.483Z,71.13
2022-10-20T03:12:12.264Z,71.03
2022-10-20T03:17:17.806Z,70.95
2022-10-20T03:22:23.322Z,71.04
2022-10-20T03:27:28.937Z,71.14
2022-10-20T03:32:35.092Z,71.25
2022-10-20T03:37:41.009Z,71.11
2022-10-20T03:42:46.540Z,70.88
2022-10-20T03:47:52.630Z,70.74
2022-10-20T03:52:58.066Z,70.72
2022-10-20T03:58:03.575Z,70.86
2022-10-20T04:03:09.270Z,70.68
2022-10-20T04:13:20.177Z,70.75
2022-10-20T04:18:25.691Z,70.84
2022-10-20T04:23:31.329Z,70.63
2022-10-20T04:28:36.994Z,70.68
2022-10-20T04:33:42.722Z,70.71
2022-10-20T04:38:48.172Z,70.81
2022-10-20T04:43:54.555Z,70.98
2022-10-20T04:49:00.068Z,70.94
2022-10-20T04:59:13.522Z,71.13
2022-10-20T05:04:19.914Z,71.12
2022-10-20T05:09:25.350Z,71.00
2022-10-20T05:14:30.817Z,70.91
2022-10-20T05:19:36.363Z,71.23
2022-10-20T05:24:41.870Z,71.30
2022-10-20T05:29:47.365Z,71.27
2022-10-20T05:34:52.725Z,71.62
2022-10-20T05:40:00.059Z,71.46
2022-10-20T05:45:06.480Z,71.60
2022-10-20T05:50:12.635Z,71.69
2022-10-20T05:55:18.297Z,71.67
2022-10-20T06:00:25.307Z,71.72
2022-10-20T06:05:30.745Z,71.87
2022-10-20T06:10:36.186Z,71.91
2022-10-20T06:15:41.704Z,72.18
2022-10-20T06:20:47.102Z,72.18
2022-10-20T06:25:52.558Z,72.16
2022-10-20T06:30:58.270Z,72.29
2022-10-20T06:36:03.717Z,72.27
2022-10-20T06:41:12.530Z,72.61
2022-10-20T06:46:19.621Z,72.62
2022-10-20T06:51:25.153Z,72.68
2022-10-20T06:56:32.751Z,73.02
2022-10-20T07:01:40.165Z,73.19
2022-10-20T07:06:47.790Z,73.23
2022-10-20T07:11:54.417Z,73.34
2022-10-20T07:16:59.999Z,73.29
2022-10-20T07:22:05.504Z,73.24
2022-10-20T07:27:10.979Z,73.50
2022-10-20T07:32:16.599Z,73.68
2022-10-20T07:37:22.144Z,74.06
2022-10-20T07:42:27.683Z,73.67
2022-10-20T07:47:38.108Z,74.25
2022-10-20T07:52:40.694Z,73.89
2022-10-20T07:57:46.205Z,73.03
2022-10-20T08:02:51.593Z,72.91
2022-10-20T08:07:58.272Z,72.90
2022-10-20T08:13:03.911Z,72.19
2022-10-20T08:18:09.344Z,72.44
2022-10-20T08:23:16.362Z,71.88
2022-10-20T08:28:24.705Z,71.56
2022-10-20T08:33:29.019Z,70.86
2022-10-20T08:38:35.202Z,69.99
2022-10-20T08:43:42.853Z,70.06
2022-10-20T08:48:49.927Z,69.64
2022-10-20T08:54:00.868Z,69.38
2022-10-20T08:59:27.593Z,68.69
2022-10-20T09:09:47.676Z,67.97
2022-10-20T09:14:53.144Z,68.17
2022-10-20T09:20:01.027Z,67.19
2022-10-20T09:25:07.102Z,66.79
2022-10-20T09:30:24.358Z,66.35
2022-10-20T09:35:32.831Z,65.44
2022-10-20T09:40:56.447Z,66.25
2022-10-20T09:46:04.909Z,65.17
2022-10-20T09:56:32.777Z,64.79
2022-10-20T10:01:41.232Z,64.83
2022-10-20T10:06:46.772Z,64.57
2022-10-20T10:12:13.019Z,63.90
2022-10-20T10:17:36.856Z,63.86
2022-10-20T10:22:43.625Z,63.70
2022-10-20T10:28:01.178Z,62.99
2022-10-20T10:33:27.954Z,62.71
2022-10-20T10:38:36.935Z,62.94
2022-10-20T10:43:50.103Z,62.17
2022-10-20T10:49:25.829Z,62.13
2022-10-20T10:54:57.253Z,62.73
2022-10-20T11:00:05.757Z,61.71
2022-10-20T11:05:23.101Z,61.17
2022-10-20T11:10:48.359Z,62.03
2022-10-20T11:15:56.797Z,61.55
2022-10-20T11:21:40.302Z,61.44
2022-10-20T11:26:50.613Z,60.79
2022-10-20T11:32:13.471Z,60.81
2022-10-20T11:37:24.660Z,60.37
2022-10-20T11:42:51.298Z,59.02
2022-10-20T11:48:11.786Z,57.67
2022-10-20T11:53:32.490Z,58.71
2022-10-20T11:59:06.383Z,57.94
2022-10-20T12:04:26.858Z,58.45
2022-10-20T12:09:37.936Z,58.29
2022-10-20T12:14:46.587Z,57.85
2022-10-20T12:19:53.325Z,56.99
2022-10-20T12:25:01.833Z,57.00
2022-10-20T12:30:42.333Z,57.25
2022-10-20T12:36:19.780Z,57.51
2022-10-20T12:41:32.903Z,55.58
2022-10-20T12:46:41.335Z,55.64
2022-10-20T12:51:55.955Z,55.25
2022-10-20T12:57:04.383Z,55.74
2022-10-20T13:02:16.598Z,55.17
2022-10-20T13:07:52.372Z,54.38
2022-10-20T13:13:06.830Z,54.05
2022-10-20T13:18:24.153Z,55.04
2022-10-20T13:23:44.725Z,55.79
2022-10-20T13:28:52.857Z,54.15
2022-10-20T13:34:22.196Z,54.00
2022-10-20T13:39:39.686Z,53.80
2022-10-20T13:44:48.203Z,53.40
2022-10-20T13:50:12.172Z,53.66
2022-10-20T13:55:26.334Z,53.58
2022-10-20T14:00:34.459Z,54.02
2022-10-20T14:05:40.557Z,53.58
2022-10-20T14:10:52.015Z,53.26
2022-10-20T14:15:59.905Z,53.73
2022-10-20T14:21:20.063Z,53.17
2022-10-20T14:26:26.114Z,53.04
2022-10-20T14:31:32.067Z,52.81
2022-10-20T14:36:41.086Z,52.62
2022-10-20T14:41:46.446Z,52.43
2022-10-20T14:46:53.721Z,52.59
2022-10-20T14:52:04.825Z,52.45
2022-10-20T14:57:13.352Z,52.32
2022-10-20T15:02:28.013Z,52.60
2022-10-20T15:07:36.766Z,52.44
2022-10-20T15:12:45.532Z,52.38
2022-10-20T15:18:09.244Z,52.46
2022-10-20T15:23:26.338Z,52.50
2022-10-20T15:28:38.141Z,52.43
2022-10-20T15:33:43.724Z,52.49
2022-10-20T15:38:50.606Z,52.73
2022-10-20T15:43:56.462Z,52.52
2022-10-20T15:49:01.914Z,52.92
2022-10-20T15:54:08.062Z,52.94
2022-10-20T15:59:13.649Z,53.35
2022-10-20T16:04:25.447Z,53.54
2022-10-20T16:09:31.226Z,53.55
2022-10-20T16:14:38.202Z,53.81
2022-10-20T16:19:43.811Z,54.18
2022-10-20T16:24:49.358Z,54.48
2022-10-20T16:29:54.972Z,54.83
2022-10-20T16:35:00.522Z,55.18
2022-10-20T16:40:06.511Z,55.60
2022-10-20T16:45:12.356Z,55.96
2022-10-20T16:50:17.960Z,56.28
2022-10-20T16:55:24.074Z,56.59
2022-10-20T17:00:31.407Z,56.83
2022-10-20T17:05:36.925Z,57.11
2022-10-20T17:10:42.987Z,57.44
2022-10-20T17:15:48.643Z,57.53
2022-10-20T17:20:55.876Z,58.04
2022-10-20T17:26:03.515Z,57.80
2022-10-20T17:31:11.842Z,58.04
2022-10-20T17:36:18.003Z,58.10
2022-10-20T17:41:24.513Z,58.34
2022-10-20T17:46:30.336Z,58.52
2022-10-20T17:51:35.940Z,58.72
2022-10-20T17:56:41.327Z,58.92
2022-10-20T18:01:46.999Z,58.98
2022-10-20T18:06:52.761Z,59.35
2022-10-20T18:11:58.363Z,59.27
2022-10-20T18:17:04.022Z,59.35
2022-10-20T18:22:09.478Z,59.52
2022-10-20T18:27:14.991Z,59.79
2022-10-20T18:32:20.556Z,59.65
2022-10-20T18:37:26.074Z,59.81
2022-10-20T18:42:31.475Z,59.96
2022-10-20T18:47:37.669Z,60.19
2022-10-20T18:52:43.498Z,58.59
2022-10-20T18:57:50.247Z,59.82
2022-10-20T19:02:57.992Z,60.12
2022-10-20T19:08:02.884Z,60.67
2022-10-20T19:13:08.364Z,61.00
2022-10-20T19:18:14.020Z,61.61
2022-10-20T19:23:19.681Z,61.67
2022-10-20T19:28:25.350Z,61.89
2022-10-20T19:33:31.286Z,62.10
2022-10-20T19:38:36.921Z,62.22
2022-10-20T19:43:42.741Z,62.57
2022-10-20T19:48:48.790Z,62.62
2022-10-20T19:53:54.355Z,62.69
2022-10-20T19:59:01.283Z,62.84
2022-10-20T20:04:08.725Z,63.04
2022-10-20T20:09:17.467Z,62.93
2022-10-20T20:14:23.096Z,63.11
2022-10-20T20:19:28.642Z,63.22
2022-10-20T20:24:34.244Z,63.51
2022-10-20T20:29:39.705Z,63.67
2022-10-20T20:34:45.473Z,63.74
2022-10-20T20:39:51.018Z,63.89
2022-10-20T20:44:56.395Z,63.87
2022-10-20T20:50:01.951Z,63.97
2022-10-20T20:55:07.806Z,64.10
2022-10-20T21:00:13.993Z,64.28
2022-10-20T21:05:19.503Z,62.32
2022-10-20T21:10:25.209Z,63.63
2022-10-20T21:15:30.741Z,63.68
2022-10-20T21:20:36.473Z,63.87
2022-10-20T21:25:44.912Z,64.04
2022-10-20T21:30:50.995Z,64.08
2022-10-20T21:36:06.365Z,64.01
2022-10-20T21:41:14.985Z,64.01
2022-10-20T21:46:26.039Z,63.95
2022-10-20T21:51:34.343Z,63.99
2022-10-20T21:56:41.809Z,63.91
2022-10-20T22:01:48.868Z,63.82
2022-10-20T22:06:56.266Z,63.76
2022-10-20T22:12:01.895Z,63.89
2022-10-20T22:17:07.390Z,63.93
2022-10-20T22:22:12.942Z,63.66
2022-10-20T22:27:31.321Z,63.73
2022-10-20T22:32:25.636Z,63.64
2022-10-20T22:37:31.164Z,63.40
2022-10-20T22:42:36.977Z,63.31
2022-10-20T22:47:42.859Z,63.27
2022-10-20T22:52:48.248Z,63.14
2022-10-20T22:57:54.147Z,63.24
2022-10-20T23:02:59.896Z,62.95
2022-10-20T23:08:05.616Z,63.10
2022-10-20T23:13:11.008Z,62.97
2022-10-20T23:18:16.466Z,62.99
2022-10-20T23:23:21.928Z,62.76
2022-10-20T23:28:27.313Z,62.89
2022-10-20T23:33:35.200Z,62.93
2022-10-20T23:38:46.437Z,63.08
2022-10-20T23:43:51.880Z,63.28
2022-10-20T23:48:57.274Z,62.95
2022-10-20T23:54:02.794Z,63.17
2022-10-20T23:59:08.244Z,63.20
